Aviation Digital Data Service (ADDS)

Output produced by METARs form (0402 UTC 15 September 2014)
found at http://www.aviationweather.gov/adds/metars/
 
KWWD 150355Z AUTO 00000KT 10SM CLR 12/09 A3022 RMK AO1